Latest Coastal Weather Observations for Geraldton Airport

IDW60701

Issued at 9:05 am WST Sunday 23 November 2014 (issued every 10 minutes, with the page automatically refreshed every 10 minutes)

About coastal observations | Map of coastal stations | Coastal observations for WA | Marine services | Other Formats
Station Details ID: 008315 Name: GERALDTON AIRPORT Lat: -28.80 Lon: 114.70 Height: 29.7 m
Data from the previous 72 hours. | See also: Recent months at Geraldton Airport
Date/Time
WST
Temp

°C
Wind Pressure Rain
since 9am
mm
Weather Cloud Vis
km
Sea
Height
m
Swell
Dir
 
Speed
knots
Gust
knots
hPa Trend Height
m
Period
s
Dir
23/08:30am 20.3 SSE 16 21 1017.7 - 0.0 - Mostly clear 10 - - - -
23/08:00am 20.9 SE 16 21 1017.6 - 0.0 - Mostly clear 10 - - - -
23/07:30am 19.4 SE 15 18 1017.2 - 0.0 - Mostly clear 10 - - - -
23/07:00am 18.8 SE 13 17 1016.9 - 0.0 - Mostly clear 10 - - - -
23/06:30am 18.0 SE 11 15 1016.4 - 0.0 - Mostly clear 10 - - - -
23/06:00am 17.1 SE 9 11 1016.0 R 0.0 Fine Mostly cloudy 40 - - - -
23/05:30am 15.9 SE 8 9 1015.7 - 0.0 - Partly cloudy - - - - -
23/05:00am 16.6 SE 9 13 1015.3 - 0.0 - Cloudy - - - - -
23/04:30am 16.7 SE 9 11 1014.9 - 0.0 - Partly cloudy - - - - -
23/04:00am 16.5 SE 9 11 1014.5 - 0.0 - Partly cloudy - - - - -
23/03:30am 16.5 SE 8 10 1014.5 - 0.0 - Cloudy - - - - -
23/03:00am 16.3 SSE 7 11 1014.4 - 0.0 - Cloudy - - - - -
23/02:30am 16.3 SE 9 11 1014.2 - 0.0 - Partly cloudy - - - - -
23/02:00am 16.4 SE 8 11 1014.2 - 0.0 - Partly cloudy - - - - -
23/01:30am 16.6 SSE 8 11 1014.4 - 0.0 - Partly cloudy - - - - -
23/01:00am 16.6 SE 8 11 1014.5 - 0.0 - Partly cloudy - - - - -
23/12:30am 16.8 SE 9 12 1014.6 - 0.0 - Partly cloudy - - - - -
23/12:00am 17.2 SE 7 10 1014.7 - 0.0 - Cloudy - - - - -
 
Date/Time
WST
Temp

°C
Wind Pressure Rain
since 9am
mm
Weather Cloud Vis
km
Sea
Height
m
Swell
Dir
 
Speed
knots
Gust
knots
hPa Trend Height
m
Period
s
Dir
22/11:30pm 16.9 SE 7 11 1014.8 - 0.0 - Partly cloudy - - - - -
22/11:00pm 17.4 S 8 11 1014.9 - 0.0 - - - - - - -
22/10:30pm 17.5 S 10 13 1015.0 - 0.0 - - - - - - -
22/10:00pm 17.4 S 10 13 1015.2 - 0.0 - - - - - - -
22/09:30pm 17.7 S 10 15 1015.3 - 0.0 - - - - - - -
22/09:00pm 18.1 S 11 15 1015.3 - 0.0 - Mostly clear - - - - -
22/08:30pm 18.2 S 11 15 1015.5 - 0.0 - - - - - - -
22/08:00pm 18.3 S 10 13 1015.4 - 0.0 - - - - - - -
22/07:30pm 18.3 S 9 13 1015.2 - 0.0 - - - - - - -
22/07:00pm 18.6 SSW 10 14 1015.2 - 0.0 - - - - - - -
22/06:30pm 19.5 S 14 17 1015.1 - 0.0 - Partly cloudy - - - - -
22/06:00pm 20.0 S 15 19 1014.7 - 0.0 - - - - - - -
22/05:30pm 20.9 SSW 15 20 1014.4 - 0.0 - Partly cloudy - - - - -
22/05:00pm 21.2 SSW 15 21 1014.2 - 0.0 - Partly cloudy - - - - -
22/04:30pm 21.4 SSW 15 19 1014.2 - 0.0 - Partly cloudy - - - - -
22/04:00pm 22.3 SSW 15 20 1014.1 - 0.0 - - - - - - -
22/03:30pm 22.5 SW 15 21 1014.1 - 0.0 - - - - - - -
22/03:00pm 23.5 SSW 13 17 1014.1 R 0.0 Fine Mostly clear 40 - - - -
22/02:30pm 23.2 SW 14 21 1014.4 - 0.0 - Mostly clear 10 - - - -
22/02:00pm 22.8 SW 13 18 1014.5 - 0.0 - Mostly clear 10 - - - -
22/01:30pm 22.9 SW 15 21 1014.6 - 0.0 - Mostly clear 10 - - - -
22/01:00pm 23.4 SW 13 21 1014.5 - 0.0 - Mostly clear 10 - - - -
22/12:30pm 23.1 SW 14 19 1014.5 - 0.0 - Mostly clear 10 - - - -
22/12:00pm 23.2 SW 12 17 1014.7 R 0.0 Fine Mostly clear 35 - - - -
22/11:30am 22.8 SW 13 17 1014.9 - 0.0 - Mostly clear 10 - - - -
22/11:00am 23.8 SW 11 16 1015.0 - 0.0 - Mostly clear 10 - - - -
22/10:30am 22.7 SW 12 19 1015.1 - 0.0 - Partly cloudy 10 - - - -
22/10:00am 23.3 S 13 17 1015.3 - 0.0 - Partly cloudy 10 - - - -
22/09:30am 21.6 S 12 18 1015.3 - 0.0 - Partly cloudy 10 - - - -
22/09:00am 21.0 S 9 13 1015.3 R 0.0 Fine Mostly cloudy 40 - - - -
22/08:30am 20.6 S 10 14 1015.2 - 0.0 - Partly cloudy 10 - - - -
22/08:00am 20.5 S 12 15 1014.9 - 0.0 - Partly cloudy 10 - - - -
22/07:30am 20.2 S 12 17 1014.7 - 0.0 - Mostly clear 10 - - - -
22/07:00am 19.6 S 11 14 1014.5 - 0.0 - Mostly clear 10 - - - -
22/06:30am 19.2 SSE 8 11 1014.1 - 0.0 - Mostly clear 10 - - - -
22/06:00am 18.3 S 6 8 1013.7 R 0.0 Fine Mostly cloudy 30 - - - -
22/05:30am 17.4 SSE 4 5 1013.6 - 0.0 - Cloudy - - - - -
22/05:00am 17.5 SSE 6 8 1013.4 - 0.0 - Partly cloudy - - - - -
22/04:30am 16.5 SSE 5 6 1013.2 - 0.0 - Cloudy - - - - -
22/04:00am 16.7 S 6 7 1013.1 - 0.0 - Cloudy - - - - -
22/03:30am 17.3 S 7 9 1012.9 - 0.0 - Partly cloudy - - - - -
22/03:00am 17.6 S 10 12 1012.7 - 0.0 - Partly cloudy - - - - -
22/02:30am 18.1 S 8 12 1012.9 - 0.0 - Partly cloudy - - - - -
22/02:00am 18.3 S 9 11 1013.0 - 0.0 - Partly cloudy - - - - -
22/01:30am 18.4 S 8 10 1013.3 - 0.0 - Partly cloudy - - - - -
22/01:00am 18.1 S 6 7 1013.5 - 0.0 - Cloudy - - - - -
22/12:30am 18.1 S 6 7 1013.7 - 0.0 - Cloudy - - - - -
22/12:00am 18.1 SSW 6 7 1013.8 - 0.0 - Cloudy - - - - -
 
Date/Time
WST
Temp

°C
Wind Pressure Rain
since 9am
mm
Weather Cloud Vis
km
Sea
Height
m
Swell
Dir
 
Speed
knots
Gust
knots
hPa Trend Height
m
Period
s
Dir
21/11:30pm 18.0 SSW 7 8 1014.1 - 0.0 - Partly cloudy - - - - -
21/11:00pm 18.1 SSW 11 16 1014.3 - 0.0 - Partly cloudy - - - - -
21/10:30pm 18.3 S 8 11 1014.3 - 0.0 - Partly cloudy - - - - -
21/10:00pm 18.2 S 8 13 1014.5 - 0.0 - Partly cloudy - - - - -
21/09:40pm 18.2 S 9 13 1014.4 - 0.0 - Partly cloudy - - - - -
21/09:30pm 18.3 SSW 11 15 1014.4 - 0.0 - Partly cloudy - - - - -
21/09:05pm 18.7 S 8 10 1014.3 - 0.0 - Partly cloudy - - - - -
21/09:00pm 18.6 SSW 8 10 1014.2 - 0.0 - Cloudy - - - - -
21/08:30pm 18.9 SW 9 12 1014.1 - 0.0 - Partly cloudy - - - - -
21/08:00pm 18.7 WSW 10 13 1014.0 - 0.0 - Partly cloudy - - - - -
21/07:30pm 19.7 WSW 13 16 1013.8 - 0.0 - Partly cloudy - - - - -
21/07:00pm 19.4 WSW 14 19 1013.7 - 0.0 - Partly cloudy - - - - -
21/06:30pm 20.7 WSW 12 16 1013.5 - 0.0 - Partly cloudy - - - - -
21/06:00pm 21.6 W 12 16 1013.0 - 0.0 - Partly cloudy - - - - -
21/05:30pm 22.2 WSW 13 18 1012.9 - 0.0 - Partly cloudy 10 - - - -
21/05:00pm 22.6 WSW 12 16 1012.9 - 0.0 - Partly cloudy 10 - - - -
21/04:30pm 23.0 W 13 19 1012.9 - 0.0 - Mostly clear 10 - - - -
21/04:00pm 23.4 W 12 16 1013.0 - 0.0 - Mostly clear 10 - - - -
21/03:30pm 24.1 W 12 19 1012.9 - 0.0 - Mostly clear 10 - - - -
21/03:00pm 24.0 W 13 19 1013.0 F 0.0 Fine Partly cloudy 30 - - - -
21/02:30pm 24.0 W 13 21 1013.3 - 0.0 - Partly cloudy 10 - - - -
21/02:00pm 24.0 W 13 19 1013.4 - 0.0 - Partly cloudy 10 - - - -
21/01:30pm 23.6 WSW 12 15 1013.5 - 0.0 - Partly cloudy 10 - - - -
21/01:00pm 25.9 WSW 10 13 1013.6 - 0.0 - Mostly cloudy 10 - - - -
21/12:30pm 24.4 W 10 15 1013.9 - 0.0 - Mostly clear 10 - - - -
21/12:00pm 23.0 WSW 12 17 1014.3 R 0.0 Fine Mostly cloudy 30 - - - -
21/11:30am 23.2 W 13 16 1014.5 - 0.0 - Partly cloudy 10 - - - -
21/11:00am 22.9 W 12 17 1014.8 - 0.0 - Mostly cloudy 10 - - - -
21/10:30am 22.5 WSW 11 15 1014.9 - 0.0 - Mostly cloudy 10 - - - -
21/10:00am 22.2 WSW 9 14 1014.9 - 0.0 - Mostly cloudy 10 - - - -
21/09:30am 23.3 SW 9 15 1015.0 - 0.0 - Mostly cloudy 10 - - - -
21/09:00am 21.8 W 10 14 1015.0 R 0.0 Fine Mostly cloudy 30 - - - -
21/08:30am 22.1 SW 10 13 1014.9 - 0.0 - Mostly cloudy 10 - - - -
21/08:00am 21.2 SW 10 14 1014.8 - 0.0 - Mostly clear 10 - - - -
21/07:30am 21.3 SW 11 16 1014.5 - 0.0 - Mostly clear 10 - - - -
21/07:00am 20.7 SW 11 14 1014.1 - 0.0 - Mostly clear 10 - - - -
21/06:30am 19.6 S 5 11 1013.9 - 0.0 - Mostly clear 10 - - - -
21/06:00am 15.7 NNE 5 5 1013.5 F 0.0 Fine Mostly cloudy 25 - - - -
21/05:30am 14.9 N 4 6 1013.4 - 0.0 - Partly cloudy - - - - -
21/05:00am 13.8 CALM 0 0 1013.1 - 0.0 - Partly cloudy - - - - -
21/04:30am 12.8 CALM 0 0 1013.2 - 0.0 - - - - - - -
21/04:00am 13.6 CALM 0 0 1013.1 - 0.0 - Partly cloudy - - - - -
21/03:30am 13.7 CALM 0 0 1013.1 - 0.0 - Partly cloudy - - - - -
21/03:00am 16.3 WSW 4 5 1013.0 - 0.0 - Mostly clear - - - - -
21/02:30am 16.8 SW 4 5 1013.0 - 0.0 - Partly cloudy - - - - -
21/02:00am 16.8 SW 6 8 1013.0 - 0.0 - Partly cloudy - - - - -
21/01:30am 17.0 SW 6 7 1013.2 - 0.0 - Partly cloudy - - - - -
21/01:00am 16.5 SW 5 6 1013.4 - 0.0 - Partly cloudy - - - - -
21/12:30am 16.6 SSW 5 5 1013.7 - 0.0 - Partly cloudy - - - - -
21/12:00am 16.5 SW 5 6 1014.0 - 0.0 - - - - - - -
 
Date/Time
WST
Temp

°C
Wind Pressure Rain
since 9am
mm
Weather Cloud Vis
km
Sea
Height
m
Swell
Dir
 
Speed
knots
Gust
knots
hPa Trend Height
m
Period
s
Dir
20/11:30pm 17.3 SSW 7 9 1014.3 - 0.0 - - - - - - -
20/11:00pm 18.3 SSW 7 9 1014.5 - 0.0 - Partly cloudy - - - - -
20/10:30pm 19.0 SSW 9 11 1014.8 - 0.0 - Partly cloudy - - - - -
20/10:00pm 19.4 SSW 7 11 1014.9 - 0.0 - Partly cloudy - - - - -
20/09:30pm 18.0 SW 6 7 1015.0 - 0.0 - Partly cloudy - - - - -
20/09:00pm 18.0 SSW 7 8 1014.7 - 0.0 - Mostly clear - - - - -
20/08:30pm 18.0 SW 7 8 1014.8 - 0.0 - - - - - - -
20/08:00pm 18.7 SW 6 8 1014.6 - 0.0 - Partly cloudy - - - - -
20/07:30pm 19.0 SW 7 8 1014.5 - 0.0 - - - - - - -
20/07:00pm 19.9 SW 10 13 1014.3 - 0.0 - Partly cloudy - - - - -
20/06:30pm 20.6 SW 12 15 1014.3 - 0.0 - Partly cloudy - - - - -
20/06:00pm 21.4 SW 12 16 1014.1 - 0.0 - Mostly clear - - - - -
20/05:30pm 21.9 SW 13 18 1014.0 - 0.0 - Mostly clear 10 - - - -
20/05:00pm 22.5 SW 13 18 1014.0 - 0.0 - Mostly clear 10 - - - -
20/04:30pm 22.8 WSW 13 18 1014.0 - 0.0 - Mostly clear 10 - - - -
20/04:00pm 23.1 W 13 17 1013.9 - 0.0 - Mostly clear 10 - - - -
20/03:30pm 23.5 W 13 17 1013.8 - 0.0 - Partly cloudy 10 - - - -
20/03:00pm 23.7 SW 12 15 1013.8 F 0.0 Fine Partly cloudy 35 - - - -
20/02:30pm 22.8 WSW 11 16 1014.3 - 0.0 - Mostly cloudy 10 - - - -
20/02:00pm 23.7 W 14 18 1014.5 - 0.0 - Partly cloudy 10 - - - -
20/01:30pm 24.3 W 13 19 1014.8 - 0.0 - Partly cloudy 10 - - - -
20/01:00pm 23.9 W 14 18 1015.1 - 0.0 - Partly cloudy 10 - - - -
20/12:30pm 24.2 WSW 14 20 1015.2 - 0.0 - Mostly clear 10 - - - -
20/12:00pm 23.4 WSW 15 19 1015.4 R 0.0 Fine Mostly clear 40 - - - -
20/11:30am 22.8 WSW 15 19 1015.6 - 0.0 - Mostly clear 10 - - - -
20/11:00am 24.2 W 12 16 1016.0 - 0.0 - Mostly clear 10 - - - -
20/10:30am 23.1 WSW 11 18 1016.0 - 0.0 - Mostly clear 10 - - - -
20/10:00am 22.8 WSW 10 15 1016.0 - 0.0 - Mostly clear 10 - - - -
20/09:30am 23.2 WSW 11 15 1016.0 - 0.0 - Mostly clear 10 - - - -

Other Formats:

Comma delimited format used in spreadsheet applications
http://www.bom.gov.au/fwo/IDW60701/IDW60701.94403.axf

JavaScript Object Notation format (JSON) in row-major order
http://www.bom.gov.au/fwo/IDW60701/IDW60701.94403.json